Time;durP1;ratioP1;P1;durP2;ratioP2;P2;SDS_P1;SDS_P2;PMS_P1;PMS_P2;Temp;Humidity;BMP_temperature;BMP_pressure;BME280_temperature;BME280_humidity;BME280_pressure;Samples;Min_cycle;Max_cycle;Signal;HPM_P1;HPM_P2
2022/07/25 00:00:12;;;;;;;4.20;2.03;;;;;;;21.38;67.82;99910.53;5092529;28;20446;-49
2022/07/25 00:02:41;;;;;;;3.20;3.00;;;;;;;21.18;68.82;99912.03;5092648;28;20819;-49
2022/07/25 00:05:10;;;;;;;3.10;2.60;;;;;;;21.04;69.58;99906.00;5092245;28;20453;-49
2022/07/25 00:07:36;;;;;;;3.33;3.13;;;;;;;20.69;71.01;99896.94;5092208;28;20511;-49
2022/07/25 00:10:04;;;;;;;7.13;2.37;;;;;;;21.12;69.79;99890.06;5092388;28;20518;-48
2022/07/25 00:12:30;;;;;;;4.00;1.97;;;;;;;20.71;71.23;99888.72;5092249;28;20953;-49
2022/07/25 00:14:57;;;;;;;2.50;2.40;;;;;;;20.83;71.14;99897.69;5092263;28;20444;-49
2022/07/25 00:17:23;;;;;;;3.67;2.70;;;;;;;20.67;71.55;99887.22;5091017;28;20822;-48
2022/07/25 00:19:50;;;;;;;4.50;2.67;;;;;;;20.57;72.04;99884.38;5092494;28;20465;-48
2022/07/25 00:22:16;;;;;;;3.57;2.10;;;;;;;20.72;71.52;99882.34;5091162;28;20942;-49
2022/07/25 00:24:43;;;;;;;2.80;2.60;;;;;;;20.59;72.03;99878.88;5079975;28;20449;-48
2022/07/25 00:27:09;;;;;;;2.67;2.47;;;;;;;20.53;72.17;99874.78;5091897;28;20484;-48
2022/07/25 00:29:36;;;;;;;3.43;3.13;;;;;;;20.65;71.53;99867.56;5092530;28;20465;-49
2022/07/25 00:32:03;;;;;;;2.67;2.47;;;;;;;20.65;71.76;99873.84;5091950;28;20473;-48
2022/07/25 00:34:29;;;;;;;9.37;3.07;;;;;;;20.41;72.48;99873.88;5092339;28;20544;-48
2022/07/25 00:36:56;;;;;;;3.77;3.07;;;;;;;20.53;72.33;99877.47;5092141;28;20441;-49
2022/07/25 00:39:22;;;;;;;19.93;3.73;;;;;;;20.44;73.00;99875.50;5091837;28;20471;-48
2022/07/25 00:41:49;;;;;;;2.70;2.53;;;;;;;20.66;72.57;99880.09;5092228;28;20445;-49
2022/07/25 00:44:27;;;;;;;3.73;3.00;;;;;;;20.70;72.57;99876.22;5092729;28;20839;-49
2022/07/25 00:46:55;;;;;;;2.90;2.60;;;;;;;20.18;73.75;99869.34;5086694;28;20488;-49
2022/07/25 00:49:22;;;;;;;5.63;2.60;;;;;;;20.09;74.77;99870.88;5092813;28;20473;-49
2022/07/25 00:51:50;;;;;;;6.33;3.10;;;;;;;20.16;74.69;99865.91;5092067;28;20448;-49
2022/07/25 00:54:16;;;;;;;2.93;2.43;;;;;;;20.25;73.85;99865.19;5092096;28;20455;-49
2022/07/25 00:56:43;;;;;;;13.93;3.10;;;;;;;20.37;73.65;99853.44;5092247;28;20460;-49
2022/07/25 00:59:10;;;;;;;2.77;2.67;;;;;;;20.24;74.13;99852.66;5091833;28;20469;-49
2022/07/25 01:01:37;;;;;;;4.00;3.60;;;;;;;20.15;74.46;99856.06;5092219;28;20455;-49
2022/07/25 01:04:05;;;;;;;3.80;3.37;;;;;;;20.01;74.74;99850.81;5092401;28;20475;-49
2022/07/25 01:06:32;;;;;;;2.10;1.90;;;;;;;19.98;74.92;99851.06;5091644;28;20981;-49
2022/07/25 01:09:00;;;;;;;3.00;2.70;;;;;;;20.10;74.52;99851.00;5092035;28;20465;-48
2022/07/25 01:11:26;;;;;;;3.70;2.93;;;;;;;20.21;74.34;99838.53;5091987;28;20449;-48
2022/07/25 01:13:53;;;;;;;3.93;3.60;;;;;;;20.18;74.72;99844.19;5091817;28;20830;-51
2022/07/25 01:16:19;;;;;;;3.23;2.97;;;;;;;20.12;75.39;99848.19;5091173;28;20976;-50
2022/07/25 01:18:46;;;;;;;3.30;3.10;;;;;;;20.06;75.79;99844.13;5092119;28;20507;-51
2022/07/25 01:21:13;;;;;;;3.97;2.70;;;;;;;20.04;75.83;99834.41;5091901;28;21013;-49
2022/07/25 01:23:40;;;;;;;5.27;3.00;;;;;;;20.08;75.78;99842.16;5078613;28;20935;-48
2022/07/25 01:26:07;;;;;;;5.93;3.63;;;;;;;20.14;75.63;99848.94;5090838;28;21020;-50
2022/07/25 01:28:33;;;;;;;3.23;3.03;;;;;;;19.87;76.64;99835.66;5093264;28;20475;-49
2022/07/25 01:31:00;;;;;;;2.60;2.40;;;;;;;19.80;76.88;99834.41;5095464;28;20457;-48
2022/07/25 01:33:26;;;;;;;3.87;3.00;;;;;;;19.70;76.31;99842.31;5095560;28;20460;-49
2022/07/25 01:35:53;;;;;;;3.80;3.53;;;;;;;19.73;76.48;99850.16;5095203;28;20456;-50
2022/07/25 01:38:19;;;;;;;3.27;3.07;;;;;;;19.86;76.27;99844.72;5094999;28;20479;-49
2022/07/25 01:40:46;;;;;;;3.17;2.97;;;;;;;19.63;76.70;99838.34;5074747;28;20456;-50
2022/07/25 01:43:13;;;;;;;4.03;2.63;;;;;;;19.72;77.09;99834.09;5075197;28;20446;-49
2022/07/25 01:45:39;;;;;;;3.07;2.87;;;;;;;19.56;77.50;99833.50;5074856;28;20453;-49
2022/07/25 01:48:06;;;;;;;3.50;3.20;;;;;;;19.53;77.68;99834.56;5075301;28;20476;-49
2022/07/25 01:50:33;;;;;;;3.37;3.07;;;;;;;19.49;77.64;99838.47;5081364;28;20546;-50
2022/07/25 01:53:00;;;;;;;4.23;3.93;;;;;;;19.72;77.12;99834.97;5094469;28;20445;-51
2022/07/25 01:55:26;;;;;;;2.70;2.60;;;;;;;19.85;76.25;99834.91;5074722;28;20476;-49
2022/07/25 01:57:55;;;;;;;4.33;3.93;;;;;;;19.62;77.02;99827.69;5088291;28;20449;-49
2022/07/25 02:00:21;;;;;;;4.17;2.67;;;;;;;19.57;77.08;99821.75;5094763;28;20449;-50
2022/07/25 02:02:48;;;;;;;5.03;2.77;;;;;;;19.43;77.37;99822.72;5094643;28;20453;-49
2022/07/25 02:05:15;;;;;;;5.40;2.53;;;;;;;19.47;77.30;99813.47;5094725;28;20445;-49
2022/07/25 02:07:41;;;;;;;3.40;3.20;;;;;;;19.46;77.25;99811.72;5094228;28;20489;-49
2022/07/25 02:10:08;;;;;;;2.47;2.37;;;;;;;19.56;76.82;99814.63;5094463;28;20880;-49
2022/07/25 02:12:34;;;;;;;2.97;2.67;;;;;;;19.49;77.21;99806.97;5094680;28;20444;-50
2022/07/25 02:15:01;;;;;;;2.83;2.63;;;;;;;19.31;77.53;99808.28;5094615;28;20449;-49
2022/07/25 02:17:27;;;;;;;6.80;3.33;;;;;;;19.30;78.19;99811.97;5080816;28;20826;-50
2022/07/25 02:19:54;;;;;;;11.93;3.37;;;;;;;19.31;78.06;99802.91;5094284;28;20523;-49
2022/07/25 02:22:20;;;;;;;3.90;3.57;;;;;;;19.27;78.00;99805.94;5092278;28;20444;-50
2022/07/25 02:24:48;;;;;;;7.37;4.13;;;;;;;19.16;78.62;99802.19;5082839;28;20502;-50
2022/07/25 02:27:15;;;;;;;6.70;3.23;;;;;;;19.08;80.28;99796.50;5094130;28;20488;-50
2022/07/25 02:29:41;;;;;;;2.20;2.10;;;;;;;19.29;79.03;99791.38;5094589;28;20850;-49
2022/07/25 02:32:08;;;;;;;9.13;2.53;;;;;;;19.38;79.00;99787.16;5093488;28;20468;-50
2022/07/25 02:34:34;;;;;;;3.40;2.50;;;;;;;19.22;79.38;99788.28;5093807;28;20449;-50
2022/07/25 02:37:01;;;;;;;5.80;3.93;;;;;;;19.19;79.57;99795.72;5094110;28;20445;-49
2022/07/25 02:39:27;;;;;;;3.13;2.93;;;;;;;19.16;79.04;99790.53;5093181;28;21017;-50
2022/07/25 02:41:54;;;;;;;6.63;2.60;;;;;;;19.38;78.90;99800.63;5093785;28;20457;-49
2022/07/25 02:44:20;;;;;;;6.30;3.50;;;;;;;19.12;80.38;99795.28;5093788;28;20455;-51
2022/07/25 02:46:46;;;;;;;3.87;3.57;;;;;;;19.24;79.67;99788.16;5086892;28;20481;-50
2022/07/25 02:49:13;;;;;;;3.73;3.43;;;;;;;19.24;79.43;99786.34;5094166;28;20473;-49
2022/07/25 02:51:40;;;;;;;4.50;4.20;;;;;;;19.29;79.96;99790.50;5093616;28;20449;-50
2022/07/25 02:54:06;;;;;;;3.57;3.20;;;;;;;19.08;80.65;99788.41;5094542;28;20455;-50
2022/07/25 02:56:33;;;;;;;3.07;2.77;;;;;;;19.02;80.79;99786.13;5095911;28;20453;-52
2022/07/25 02:58:59;;;;;;;5.33;3.60;;;;;;;19.08;80.93;99780.34;5095043;28;20502;-51
2022/07/25 03:01:26;;;;;;;12.47;4.00;;;;;;;18.97;81.34;99788.31;5093673;28;20479;-50
2022/07/25 03:03:52;;;;;;;6.03;2.90;;;;;;;18.95;81.23;99787.56;5093394;28;20459;-50
2022/07/25 03:06:19;;;;;;;4.20;3.30;;;;;;;19.07;80.75;99784.00;5093345;28;21032;-50
2022/07/25 03:08:45;;;;;;;3.10;2.90;;;;;;;18.80;82.93;99777.88;5093834;28;20934;-50
2022/07/25 03:11:13;;;;;;;3.37;3.10;;;;;;;18.84;83.16;99780.25;5092135;28;20445;-52
2022/07/25 03:13:39;;;;;;;3.40;3.20;;;;;;;18.66;84.46;99783.38;5093254;28;21018;-50
2022/07/25 03:16:06;;;;;;;6.50;4.10;;;;;;;18.76;84.19;99779.91;5092641;28;20448;-51
2022/07/25 03:18:33;;;;;;;3.63;3.10;;;;;;;18.71;83.97;99782.06;5093179;28;20465;-51
2022/07/25 03:20:59;;;;;;;2.70;2.50;;;;;;;18.70;84.02;99779.50;5093377;28;20460;-51
2022/07/25 03:23:27;;;;;;;10.90;3.60;;;;;;;18.92;83.30;99771.63;5082446;28;20456;-50
2022/07/25 03:25:55;;;;;;;3.37;3.10;;;;;;;18.74;83.81;99765.69;5090795;28;20449;-52
2022/07/25 03:28:22;;;;;;;2.97;2.73;;;;;;;18.93;82.99;99774.22;5092953;28;20497;-49
2022/07/25 03:30:48;;;;;;;2.57;2.47;;;;;;;18.70;83.93;99776.81;5092777;28;20488;-50
2022/07/25 03:33:15;;;;;;;7.53;3.50;;;;;;;18.58;84.46;99775.78;5093178;28;20449;-50
2022/07/25 03:35:44;;;;;;;3.87;3.57;;;;;;;18.77;83.34;99772.69;5092697;28;20445;-50
2022/07/25 03:38:10;;;;;;;3.93;3.57;;;;;;;18.86;83.41;99772.03;5092758;28;20493;-50
2022/07/25 03:40:37;;;;;;;2.80;2.70;;;;;;;18.79;83.15;99762.69;5093121;28;20455;-50
2022/07/25 03:43:03;;;;;;;3.60;2.80;;;;;;;18.34;84.82;99767.59;5092905;28;20965;-51
2022/07/25 03:45:30;;;;;;;3.83;3.53;;;;;;;18.68;83.59;99767.97;5092735;28;20449;-50
2022/07/25 03:47:57;;;;;;;2.47;2.30;;;;;;;18.66;84.01;99764.53;5086195;28;20481;-50
2022/07/25 03:50:23;;;;;;;3.17;2.97;;;;;;;18.70;83.29;99753.44;5092532;28;20444;-50
2022/07/25 03:52:49;;;;;;;4.10;3.43;;;;;;;18.56;84.67;99756.19;5092604;28;20445;-50
2022/07/25 03:55:16;;;;;;;4.07;3.67;;;;;;;18.44;85.53;99755.22;5092698;28;20455;-50
2022/07/25 03:57:42;;;;;;;7.00;2.10;;;;;;;18.33;85.77;99749.72;5092418;28;20452;-51
2022/07/25 04:00:11;;;;;;;4.53;3.57;;;;;;;18.47;85.65;99751.44;5092546;28;20463;-50
2022/07/25 04:02:38;;;;;;;6.23;3.30;;;;;;;18.41;85.15;99744.69;5092635;28;20452;-52
2022/07/25 04:05:06;;;;;;;12.20;3.73;;;;;;;18.38;84.97;99744.03;5092518;28;20453;-51
2022/07/25 04:07:33;;;;;;;3.10;2.90;;;;;;;18.55;84.39;99757.16;5092179;28;20487;-51
2022/07/25 04:10:00;;;;;;;21.43;3.57;;;;;;;18.45;84.58;99758.78;5092132;28;20471;-51
2022/07/25 04:12:26;;;;;;;3.17;2.87;;;;;;;18.34;85.03;99746.91;5092131;28;20445;-50
2022/07/25 04:14:53;;;;;;;4.50;3.03;;;;;;;18.33;85.30;99749.72;5092527;28;20449;-50
2022/07/25 04:17:20;;;;;;;3.13;2.87;;;;;;;18.45;84.92;99748.00;5079109;28;20442;-50
2022/07/25 04:19:46;;;;;;;3.50;3.20;;;;;;;18.59;83.99;99742.50;5092437;28;20543;-51
2022/07/25 04:22:13;;;;;;;4.10;3.80;;;;;;;18.58;84.59;99751.56;5090989;28;20969;-51
2022/07/25 04:24:40;;;;;;;5.23;3.20;;;;;;;18.68;84.23;99744.59;5079742;28;20459;-50
2022/07/25 04:27:06;;;;;;;3.50;2.97;;;;;;;18.56;84.76;99751.69;5091809;28;20488;-50
2022/07/25 04:29:33;;;;;;;3.80;2.90;;;;;;;18.68;84.18;99739.22;5092042;28;20556;-50
2022/07/25 04:31:59;;;;;;;4.10;2.87;;;;;;;19.35;82.01;99738.88;5091902;28;20456;-50
2022/07/25 04:34:26;;;;;;;5.03;2.80;;;;;;;20.17;77.92;99737.19;5091094;28;20537;-50
2022/07/25 04:36:52;;;;;;;3.50;3.27;;;;;;;19.61;79.92;99735.13;5091896;28;20444;-49
2022/07/25 04:39:19;;;;;;;3.23;3.03;;;;;;;19.37;81.37;99745.88;5092144;28;20572;-49
2022/07/25 04:41:45;;;;;;;5.17;3.30;;;;;;;19.31;81.65;99742.75;5092381;28;20530;-50
2022/07/25 04:44:12;;;;;;;3.03;2.83;;;;;;;19.40;82.02;99744.78;5092167;28;20444;-49
2022/07/25 04:46:39;;;;;;;2.83;2.73;;;;;;;19.44;81.73;99741.72;5085433;28;20797;-49
2022/07/25 04:49:05;;;;;;;3.17;2.97;;;;;;;19.91;80.03;99737.34;5091884;28;20468;-49
2022/07/25 04:51:32;;;;;;;3.23;3.00;;;;;;;20.72;76.92;99736.47;5091767;28;20950;-49
2022/07/25 04:53:58;;;;;;;3.87;3.57;;;;;;;21.52;73.75;99736.31;5091829;28;20449;-51
2022/07/25 04:56:25;;;;;;;3.00;2.80;;;;;;;22.04;70.92;99731.91;5091832;28;20445;-49
2022/07/25 04:58:51;;;;;;;4.77;4.47;;;;;;;22.59;68.81;99732.59;5092066;28;20461;-50
2022/07/25 05:01:18;;;;;;;3.43;2.77;;;;;;;22.70;67.78;99725.25;5091731;28;20934;-49
2022/07/25 05:03:44;;;;;;;3.33;3.03;;;;;;;23.21;65.13;99724.34;5093555;28;21010;-50
2022/07/25 05:06:16;;;;;;;11.17;2.83;;;;;;;23.44;63.50;99730.41;5095724;28;20490;-49
2022/07/25 05:08:42;;;;;;;4.80;3.83;;;;;;;23.41;63.73;99729.81;5095371;28;20488;-49
2022/07/25 05:11:09;;;;;;;4.37;3.97;;;;;;;23.66;63.69;99721.19;5095835;28;20457;-50
2022/07/25 05:13:35;;;;;;;3.67;3.47;;;;;;;23.82;63.75;99715.19;5095628;28;20964;-49
2022/07/25 05:16:02;;;;;;;4.37;4.03;;;;;;;24.07;62.44;99717.34;5095536;28;20449;-51
2022/07/25 05:18:28;;;;;;;4.37;4.17;;;;;;;24.32;61.84;99721.34;5095687;28;20460;-50
2022/07/25 05:20:55;;;;;;;3.60;3.40;;;;;;;24.50;60.85;99716.88;5095110;28;20443;-49
2022/07/25 05:23:21;;;;;;;3.03;2.83;;;;;;;24.68;60.84;99718.84;5085706;28;20452;-49
2022/07/25 05:25:48;;;;;;;3.97;3.67;;;;;;;24.59;60.72;99706.97;5092178;28;20451;-51
2022/07/25 05:28:16;;;;;;;4.07;3.73;;;;;;;24.99;59.94;99714.00;5095319;28;21005;-50
2022/07/25 05:30:43;;;;;;;3.43;3.13;;;;;;;24.90;60.15;99713.00;5095419;28;20465;-50
2022/07/25 05:33:09;;;;;;;4.00;3.70;;;;;;;24.99;60.62;99695.81;5095243;28;20456;-49
2022/07/25 05:35:36;;;;;;;4.90;3.23;;;;;;;25.04;59.42;99696.22;5095244;28;20830;-49
2022/07/25 05:38:04;;;;;;;2.63;2.53;;;;;;;25.50;58.74;99705.28;5095605;28;20471;-50
2022/07/25 05:40:30;;;;;;;6.50;3.60;;;;;;;25.19;59.11;99699.31;5095170;28;20449;-50
2022/07/25 05:42:57;;;;;;;5.40;3.97;;;;;;;25.50;58.83;99705.28;5095519;28;20451;-50
2022/07/25 05:45:29;;;;;;;3.90;3.50;;;;;;;25.65;57.85;99711.06;5095041;28;20473;-50
2022/07/25 05:47:55;;;;;;;2.90;2.70;;;;;;;25.37;58.88;99710.25;5087679;28;20492;-50
2022/07/25 05:50:22;;;;;;;4.40;4.10;;;;;;;25.79;57.73;99710.56;5094681;28;20449;-49
2022/07/25 05:52:48;;;;;;;3.77;3.47;;;;;;;25.78;57.58;99710.72;5095046;28;20444;-50
2022/07/25 05:55:16;;;;;;;3.73;3.30;;;;;;;25.89;57.27;99699.56;5094855;28;20536;-50
2022/07/25 05:57:42;;;;;;;7.33;3.17;;;;;;;26.18;56.21;99700.19;5094924;28;20452;-50
2022/07/25 06:00:09;;;;;;;5.17;4.67;;;;;;;26.46;56.18;99702.81;5094717;28;20456;-52
2022/07/25 06:02:36;;;;;;;3.60;3.40;;;;;;;26.57;56.68;99702.50;5094738;28;20455;-51
2022/07/25 06:05:03;;;;;;;15.73;2.50;;;;;;;26.70;56.25;99705.66;5094652;28;20807;-51
2022/07/25 06:07:30;;;;;;;4.00;3.60;;;;;;;26.23;56.64;99699.69;5094842;28;20492;-51
2022/07/25 06:09:56;;;;;;;3.43;2.80;;;;;;;26.68;55.79;99696.78;5074254;28;20506;-50
2022/07/25 06:12:22;;;;;;;2.83;2.63;;;;;;;26.68;55.96;99699.50;5074242;28;20460;-51
2022/07/25 06:14:49;;;;;;;4.20;3.60;;;;;;;26.67;56.58;99707.84;5074129;28;20944;-50
2022/07/25 06:17:16;;;;;;;2.80;2.60;;;;;;;27.13;55.02;99696.53;5074251;28;20445;-51
2022/07/25 06:19:42;;;;;;;3.37;2.90;;;;;;;27.35;54.50;99695.06;5075734;28;20474;-50
2022/07/25 06:22:10;;;;;;;7.07;3.73;;;;;;;27.45;53.27;99693.06;5093023;28;20444;-50
2022/07/25 06:24:37;;;;;;;7.53;2.77;;;;;;;28.06;51.79;99687.34;5081579;28;20472;-50
2022/07/25 06:27:04;;;;;;;4.43;4.00;;;;;;;28.41;51.41;99683.44;5094010;28;20449;-50
2022/07/25 06:29:30;;;;;;;3.73;3.53;;;;;;;27.58;52.70;99678.94;5094166;28;20469;-51
2022/07/25 06:31:57;;;;;;;3.50;3.20;;;;;;;27.42;53.04;99681.63;5093431;28;20461;-51
2022/07/25 06:34:23;;;;;;;2.93;2.73;;;;;;;27.40;53.31;99680.91;5094480;28;20503;-51
2022/07/25 06:36:56;;;;;;;3.87;3.47;;;;;;;27.82;53.18;99674.53;5093895;28;20474;-51
2022/07/25 06:39:23;;;;;;;7.70;2.73;;;;;;;28.40;52.25;99679.84;5094093;28;20465;-52
2022/07/25 06:41:50;;;;;;;7.23;3.77;;;;;;;28.14;51.24;99676.44;5093978;28;20813;-50
2022/07/25 06:44:16;;;;;;;29.23;4.00;;;;;;;27.34;52.80;99679.72;5093399;28;20954;-50
2022/07/25 06:46:43;;;;;;;3.23;3.03;;;;;;;28.09;51.12;99674.19;5087029;28;20450;-51
2022/07/25 06:49:09;;;;;;;4.07;3.87;;;;;;;28.26;50.67;99680.53;5093962;28;20564;-50
2022/07/25 06:51:36;;;;;;;9.50;3.17;;;;;;;27.98;51.35;99683.63;5093654;28;20449;-50
2022/07/25 06:54:02;;;;;;;3.40;3.10;;;;;;;27.42;52.36;99682.47;5093801;28;20448;-52
2022/07/25 06:56:31;;;;;;;4.50;4.17;;;;;;;27.55;52.02;99678.38;5093502;28;20453;-51
2022/07/25 06:58:58;;;;;;;2.80;2.70;;;;;;;27.37;53.41;99676.66;5093668;28;20503;-50
2022/07/25 07:01:25;;;;;;;5.83;3.50;;;;;;;27.59;53.19;99671.59;5093587;28;20445;-50
2022/07/25 07:03:51;;;;;;;4.60;3.47;;;;;;;27.55;52.84;99681.13;5093505;28;20445;-51
2022/07/25 07:06:18;;;;;;;4.93;3.43;;;;;;;27.75;51.66;99682.56;5093303;28;20800;-51
2022/07/25 07:08:44;;;;;;;16.43;3.23;;;;;;;27.66;51.51;99676.22;5093390;28;20492;-50
2022/07/25 07:11:14;;;;;;;3.57;3.37;;;;;;;27.87;51.05;99675.75;5093340;28;20455;-50
2022/07/25 07:13:40;;;;;;;3.47;3.27;;;;;;;27.63;50.98;99675.69;5093694;28;20481;-50
2022/07/25 07:16:07;;;;;;;7.10;3.67;;;;;;;27.74;51.02;99668.06;5092500;28;20445;-51
2022/07/25 07:18:34;;;;;;;20.53;4.60;;;;;;;27.92;50.52;99664.28;5093486;28;20468;-50
2022/07/25 07:21:00;;;;;;;3.30;3.07;;;;;;;27.99;50.27;99658.00;5093748;28;20441;-50
2022/07/25 07:23:27;;;;;;;11.23;4.47;;;;;;;28.01;50.64;99658.66;5081917;28;20450;-50
2022/07/25 07:25:55;;;;;;;9.43;3.90;;;;;;;28.27;49.56;99653.03;5090065;28;20445;-50
2022/07/25 07:28:22;;;;;;;3.60;3.30;;;;;;;28.13;49.22;99656.44;5094264;28;20488;-50
2022/07/25 07:30:48;;;;;;;8.37;3.70;;;;;;;28.36;49.00;99644.81;5092804;28;20452;-50
2022/07/25 07:33:36;;;;;;;2.93;2.70;;;;;;;28.57;48.86;99640.50;5092919;28;20449;-50
2022/07/25 07:36:03;;;;;;;6.27;3.90;;;;;;;28.42;49.63;99644.13;5092795;28;21009;-52
2022/07/25 07:38:29;;;;;;;3.93;3.63;;;;;;;28.68;48.71;99646.63;5092770;28;20471;-51
2022/07/25 07:40:56;;;;;;;4.43;4.07;;;;;;;28.94;49.17;99647.25;5092755;28;20445;-51
2022/07/25 07:43:22;;;;;;;4.23;3.90;;;;;;;28.65;49.07;99653.31;5092736;28;20449;-50
2022/07/25 07:45:55;;;;;;;6.23;4.30;;;;;;;28.74;49.64;99649.50;5090916;28;20437;-50
2022/07/25 07:48:22;;;;;;;4.27;3.97;;;;;;;28.74;49.24;99646.75;5088526;28;20500;-50
2022/07/25 07:50:48;;;;;;;4.10;3.90;;;;;;;29.28;48.15;99640.56;5092715;28;20455;-51
2022/07/25 07:53:14;;;;;;;3.53;3.33;;;;;;;29.04;47.98;99645.13;5092781;28;20468;-50
2022/07/25 07:55:44;;;;;;;4.87;4.47;;;;;;;28.89;49.30;99636.81;5092938;28;20463;-51
2022/07/25 07:58:14;;;;;;;3.90;3.53;;;;;;;28.95;48.17;99637.16;5092564;28;20526;-52
2022/07/25 08:00:42;;;;;;;4.80;3.83;;;;;;;29.00;48.28;99638.31;5092745;28;20525;-51
2022/07/25 08:03:08;;;;;;;3.00;2.80;;;;;;;29.60;47.03;99643.09;5092758;28;20449;-50
2022/07/25 08:05:41;;;;;;;4.70;4.30;;;;;;;29.70;46.28;99651.09;5092464;28;20425;-51
2022/07/25 08:08:11;;;;;;;4.33;3.93;;;;;;;29.70;46.85;99642.88;5092517;28;20497;-51
2022/07/25 08:10:40;;;;;;;4.83;3.27;;;;;;;30.11;45.68;99642.56;5093042;28;20822;-51
2022/07/25 08:13:14;;;;;;;3.30;3.10;;;;;;;30.30;44.57;99636.56;5092200;28;20954;-51
2022/07/25 08:15:42;;;;;;;9.57;4.40;;;;;;;30.51;44.58;99633.94;5092142;28;20465;-51
2022/07/25 08:18:09;;;;;;;3.37;3.07;;;;;;;30.81;44.40;99633.97;5079929;28;20461;-51
2022/07/25 08:20:43;;;;;;;4.80;4.40;;;;;;;30.69;44.17;99630.84;5091663;28;20440;-51
2022/07/25 08:23:10;;;;;;;3.30;3.10;;;;;;;30.70;44.52;99627.03;5083946;28;20511;-51
2022/07/25 08:25:37;;;;;;;3.30;3.10;;;;;;;30.58;44.74;99623.06;5087286;28;20455;-51
2022/07/25 08:28:05;;;;;;;3.60;3.40;;;;;;;30.85;44.21;99618.84;5091985;28;20990;-51
2022/07/25 08:30:32;;;;;;;4.27;3.87;;;;;;;31.09;44.15;99623.97;5092237;28;20515;-51
2022/07/25 08:33:04;;;;;;;5.20;3.50;;;;;;;31.02;44.67;99617.56;5092477;28;20453;-51
2022/07/25 08:35:31;;;;;;;3.73;3.43;;;;;;;31.23;43.68;99623.13;5092030;28;20451;-50
2022/07/25 08:37:59;;;;;;;3.37;3.17;;;;;;;31.26;43.87;99615.56;5093138;28;20452;-51
2022/07/25 08:40:27;;;;;;;8.73;2.73;;;;;;;31.31;42.68;99611.19;5096424;28;20455;-50
2022/07/25 08:42:55;;;;;;;5.27;3.87;;;;;;;31.68;42.88;99599.09;5096581;28;20542;-52
2022/07/25 08:45:22;;;;;;;3.67;3.37;;;;;;;31.72;42.61;99599.53;5096411;28;20535;-50
2022/07/25 08:47:50;;;;;;;3.70;3.43;;;;;;;31.95;42.14;99597.47;5089503;28;20452;-50
2022/07/25 08:50:24;;;;;;;5.70;3.27;;;;;;;31.75;42.66;99597.28;5096129;28;20445;-51
2022/07/25 08:52:51;;;;;;;8.00;4.43;;;;;;;32.15;41.47;99594.00;5097016;28;20441;-53
2022/07/25 08:55:38;;;;;;;3.20;3.00;;;;;;;31.90;42.38;99596.34;5084549;28;20423;-55
2022/07/25 08:58:04;;;;;;;3.30;3.20;;;;;;;32.26;42.39;99582.47;5095695;28;20657;-56
2022/07/25 09:00:32;;;;;;;4.40;3.43;;;;;;;32.03;42.54;99580.81;5096096;28;20448;-54
2022/07/25 09:03:00;;;;;;;3.10;2.90;;;;;;;32.11;43.02;99580.66;5095886;28;20423;-55
2022/07/25 09:05:29;;;;;;;3.70;3.50;;;;;;;32.25;42.30;99576.09;5095954;28;20434;-55
2022/07/25 09:07:56;;;;;;;4.03;3.83;;;;;;;31.76;43.16;99566.00;5095376;28;20933;-54
2022/07/25 09:10:26;;;;;;;5.33;3.90;;;;;;;32.12;42.66;99567.75;5094828;28;20448;-54
2022/07/25 09:13:13;;;;;;;3.80;3.47;;;;;;;32.88;41.87;99565.91;5095858;28;20430;-54
2022/07/25 09:15:41;;;;;;;4.07;3.77;;;;;;;32.53;41.79;99558.75;5095691;28;20415;-54
2022/07/25 09:18:13;;;;;;;3.77;3.47;;;;;;;32.74;41.47;99561.38;5082978;28;20843;-54
2022/07/25 09:20:51;;;;;;;5.10;4.40;;;;;;;33.17;40.75;99555.63;5094852;28;20871;-55
2022/07/25 09:23:38;;;;;;;3.63;3.40;;;;;;;33.33;40.80;99559.91;5086325;28;20445;-56
2022/07/25 09:26:08;;;;;;;2.73;2.53;;;;;;;33.47;40.21;99554.25;5095033;28;20453;-54
2022/07/25 09:28:43;;;;;;;3.80;3.57;;;;;;;33.73;40.62;99549.81;5088731;28;20497;-55
2022/07/25 09:31:11;;;;;;;3.00;2.80;;;;;;;33.96;39.50;99552.16;5094354;28;20470;-55
2022/07/25 09:33:50;;;;;;;4.33;4.03;;;;;;;33.51;39.63;99551.91;5094181;28;20447;-54
2022/07/25 09:36:17;;;;;;;3.40;3.20;;;;;;;34.26;38.81;99549.78;5094407;28;20416;-55
2022/07/25 09:39:10;;;;;;;3.63;3.53;;;;;;;33.97;38.61;99540.91;5093740;28;20837;-54
2022/07/25 09:41:38;;;;;;;7.63;3.00;;;;;;;34.60;38.38;99548.66;5090937;28;20448;-54
2022/07/25 09:44:21;;;;;;;4.87;3.40;;;;;;;34.67;37.81;99541.19;5093550;28;20934;-55
2022/07/25 09:46:48;;;;;;;3.13;2.93;;;;;;;34.87;37.00;99536.47;5087525;28;20443;-55
2022/07/25 09:49:15;;;;;;;3.53;3.33;;;;;;;35.07;36.77;99538.28;5093262;28;20470;-54
2022/07/25 09:51:42;;;;;;;2.93;2.73;;;;;;;35.29;36.57;99528.59;5094007;28;20874;-53
2022/07/25 09:54:09;;;;;;;3.40;3.10;;;;;;;35.07;36.35;99522.53;5093639;28;20448;-55
2022/07/25 09:56:36;;;;;;;3.73;3.53;;;;;;;35.19;35.79;99533.75;5093659;28;20492;-56
2022/07/25 09:59:03;;;;;;;2.13;2.00;;;;;;;35.31;35.47;99534.72;5093666;28;20465;-55
2022/07/25 10:01:49;;;;;;;2.40;2.30;;;;;;;35.25;34.78;99530.09;5093769;28;20455;-54
2022/07/25 10:04:50;;;;;;;3.30;3.00;;;;;;;35.67;34.83;99528.53;5093875;28;20532;-54
2022/07/25 10:07:19;;;;;;;2.73;2.60;;;;;;;35.90;35.21;99526.00;5085172;28;20510;-55
2022/07/25 10:09:48;;;;;;;2.57;2.47;;;;;;;36.13;34.22;99521.75;5093114;28;20485;-54
2022/07/25 10:12:20;;;;;;;5.43;3.23;;;;;;;36.20;32.75;99519.78;5093630;28;20448;-55
2022/07/25 10:15:04;;;;;;;3.60;2.60;;;;;;;36.03;33.21;99518.66;5093354;28;20432;-55
2022/07/25 10:17:31;;;;;;;10.40;2.53;;;;;;;35.93;33.41;99524.72;5080064;28;20488;-54
2022/07/25 10:20:00;;;;;;;2.33;2.23;;;;;;;36.19;32.52;99512.56;5093322;28;20569;-55
2022/07/25 10:22:36;;;;;;;3.80;1.90;;;;;;;36.03;32.68;99513.97;5093190;28;20420;-55
2022/07/25 10:25:21;;;;;;;2.80;2.70;;;;;;;35.83;33.22;99513.28;5093070;28;20945;-54
2022/07/25 10:27:57;;;;;;;2.63;2.53;;;;;;;35.58;33.51;99514.13;5093021;28;20449;-55
2022/07/25 10:30:26;;;;;;;3.53;3.33;;;;;;;35.25;33.65;99519.06;5054564;28;1097074;-55
2022/07/25 10:33:02;;;;;;;1.63;1.53;;;;;;;35.19;34.13;99517.16;5094823;28;20406;-55
2022/07/25 10:35:30;;;;;;;3.57;2.57;;;;;;;35.24;34.35;99498.00;5094316;28;20506;-55
2022/07/25 10:37:57;;;;;;;2.87;2.37;;;;;;;35.13;35.30;99515.28;5094193;28;20452;-55
2022/07/25 10:40:42;;;;;;;6.13;2.33;;;;;;;35.07;35.18;99507.88;5094184;28;20427;-55
2022/07/25 10:43:18;;;;;;;3.50;2.67;;;;;;;35.29;35.35;99515.59;5094191;28;20430;-56
2022/07/25 10:45:49;;;;;;;2.97;2.77;;;;;;;35.50;33.86;99506.13;5093283;28;20419;-56
2022/07/25 10:48:21;;;;;;;2.80;2.60;;;;;;;35.30;34.62;99508.16;5088158;28;20475;-55
2022/07/25 10:50:50;;;;;;;7.37;3.60;;;;;;;35.57;34.64;99503.31;5093925;28;20524;-55
2022/07/25 10:53:44;;;;;;;2.73;2.63;;;;;;;35.15;35.38;99500.19;5093816;28;20472;-54
2022/07/25 10:56:20;;;;;;;5.27;2.47;;;;;;;35.48;34.48;99493.59;5092655;28;20420;-55
2022/07/25 10:58:47;;;;;;;2.33;2.13;;;;;;;35.78;34.30;99488.25;5080805;28;20438;-55
2022/07/25 11:01:18;;;;;;;2.63;2.53;;;;;;;35.87;34.21;99489.66;5092868;28;20455;-55
2022/07/25 11:03:45;;;;;;;2.53;2.37;;;;;;;35.96;33.25;99487.44;5094128;28;20419;-56
2022/07/25 11:06:12;;;;;;;5.60;2.10;;;;;;;35.37;33.84;99480.50;5093641;28;20424;-55
2022/07/25 11:08:39;;;;;;;2.10;2.00;;;;;;;35.52;34.24;99487.41;5093510;28;20467;-55
2022/07/25 11:11:07;;;;;;;2.27;2.13;;;;;;;34.91;34.57;99485.22;5093277;28;20431;-54
2022/07/25 11:13:41;;;;;;;2.23;2.13;;;;;;;35.11;33.76;99487.03;5094679;28;20818;-55
2022/07/25 11:16:08;;;;;;;2.00;1.90;;;;;;;35.00;34.30;99483.06;5092257;28;20431;-56
2022/07/25 11:18:38;;;;;;;3.17;1.80;;;;;;;35.21;34.36;99490.13;5093554;28;20489;-54
2022/07/25 11:21:06;;;;;;;3.00;2.80;;;;;;;35.43;34.09;99487.91;5093357;28;20422;-55
2022/07/25 11:23:34;;;;;;;3.40;3.10;;;;;;;35.62;33.92;99489.63;5081704;28;20424;-55
2022/07/25 11:26:06;;;;;;;3.93;2.40;;;;;;;35.45;33.83;99486.59;5091951;28;20939;-55
2022/07/25 11:28:41;;;;;;;2.30;2.20;;;;;;;35.65;33.54;99489.22;5086123;28;20830;-56
2022/07/25 11:31:08;;;;;;;7.53;1.93;;;;;;;35.53;33.73;99491.00;5093601;28;20431;-55
2022/07/25 11:33:35;;;;;;;2.40;2.30;;;;;;;35.97;32.86;99486.38;5093359;28;20424;-55
2022/07/25 11:36:04;;;;;;;5.50;2.50;;;;;;;36.04;33.33;99490.75;5093055;28;20445;-55
2022/07/25 11:38:32;;;;;;;1.80;1.70;;;;;;;35.51;33.54;99482.94;5093044;28;20453;-55